Sierra Blanca Regional Airport
KSRR : now visible

Airfield :











YOU CAN JOIN US ON...

 
LOGIN :

Register | Disclaimer

   EN    FR    IT 

 









Legend :    VFR   Marginal VFR   IFR   Intensive IFR   Very Intensive IFR
Visi :
Ceiling :
>= 8 km
>= 3000ft
5 to 8 km
1000 to 3000 ft
1500m to 5 km
500 to 1000 ft
800 to 1500m
200 to 500 ft
< 800m
< 200 ft
Symbols :   Thunderstorms  Fog  Heavy snow  Heavy precipitations  Wind > 20 kt






- Airport Elevation : 6814 ft


KSRR - Sierra Blanca Regional

CURRENT METAR :
  • 251815Z AUTO 14016KT 10SM OVC034 13/04 A3011 RMK AO2

EXPIRED METARs :
  • 251755Z AUTO 15012G18KT 10SM OVC034 14/04 A3012 RMK AO2
  • 251735Z AUTO 14009G14KT 10SM BKN034 BKN040 13/04 A3012 RMK AO2
  • 251715Z AUTO 20006KT 170V230 10SM BKN030 13/04 A3011 RMK AO2
  • 251655Z AUTO 13006G15KT 10SM BKN027 13/04 A3011 RMK AO2
  • 251635Z AUTO 14010G16KT 10SM SCT027 SCT095 12/04 A3010 RMK AO2
  • 251615Z AUTO 13010KT 100V180 10SM BKN024 BKN031 12/05 A3010 RMK AO2
  • 251555Z AUTO 14009G14KT 090V150 10SM BKN024 OVC110 12/05 A3011 RMK AO2
  • 251535Z AUTO 13009KT 10SM BKN022 BKN095 11/05 A3010 RMK AO2
  • 251515Z AUTO 14004KT 10SM SCT095 11/05 A3010 RMK AO2

TAF N/A
KZAB FIR / North America



MET'MAP, your aeronautical weather chart ! - Copyright ORBIFLY December 2007 - Disclaimer

ORBIFLY MET'MAP TEAM :

Programming & Development : Alexandra Zaïnal
Concept & original design : Baudouin d'Aumeries
Assistance for programming : Marc-Olivier Méhu
Technical & hardware support : Manuel Goepfert

Contact : metmap@orbifly.com




SOURCES & CREDITS :

   NOAA       Earth
Advisory